createdAt,value
2023-04-15T00:01:52.567Z,11.40
2023-04-15T00:04:19.299Z,11.27
2023-04-15T00:06:53.523Z,12.23
2023-04-15T00:09:20.809Z,12.57
2023-04-15T00:11:47.301Z,10.70
2023-04-15T00:14:13.813Z,12.77
2023-04-15T00:16:40.424Z,13.02
2023-04-15T00:19:06.868Z,13.15
2023-04-15T00:21:33.609Z,13.68
2023-04-15T00:24:00.192Z,13.10
2023-04-15T00:26:27.013Z,12.05
2023-04-15T00:28:53.800Z,14.02
2023-04-15T00:31:20.947Z,8.82
2023-04-15T00:33:47.806Z,10.75
2023-04-15T00:36:14.603Z,8.50
2023-04-15T00:38:41.368Z,7.85
2023-04-15T00:41:09.276Z,12.75
2023-04-15T00:43:35.945Z,15.70
2023-04-15T00:46:05.021Z,10.13
2023-04-15T00:48:32.384Z,10.20
2023-04-15T00:50:59.190Z,14.13
2023-04-15T00:53:25.739Z,10.40
2023-04-15T00:55:52.708Z,11.32
2023-04-15T00:58:19.273Z,9.52
2023-04-15T01:00:46.698Z,12.13
2023-04-15T01:03:14.205Z,11.40
2023-04-15T01:05:41.850Z,9.83
2023-04-15T01:08:08.346Z,9.68
2023-04-15T01:10:35.971Z,11.55
2023-04-15T01:13:03.329Z,10.13
2023-04-15T01:15:30.635Z,10.77
2023-04-15T01:17:59.596Z,10.52
2023-04-15T01:20:26.238Z,11.82
2023-04-15T01:22:54.533Z,10.55
2023-04-15T01:25:34.922Z,8.90
2023-04-15T01:28:02.452Z,10.60
2023-04-15T01:30:29.164Z,12.38
2023-04-15T01:32:56.059Z,10.35
2023-04-15T01:35:23.676Z,11.38
2023-04-15T01:37:50.309Z,11.00
2023-04-15T01:40:17.061Z,8.88
2023-04-15T01:42:43.556Z,9.52
2023-04-15T01:45:10.402Z,10.60
2023-04-15T01:47:37.135Z,12.07
2023-04-15T01:50:03.830Z,10.57
2023-04-15T01:52:30.480Z,10.63
2023-04-15T01:54:57.134Z,10.68
2023-04-15T01:57:23.539Z,10.27
2023-04-15T01:59:50.059Z,9.15
2023-04-15T02:02:17.603Z,12.50
2023-04-15T02:04:44.615Z,11.53
2023-04-15T02:07:11.365Z,9.60
2023-04-15T02:09:38.660Z,11.85
2023-04-15T02:12:05.833Z,10.75
2023-04-15T02:14:32.351Z,11.07
2023-04-15T02:17:02.524Z,11.57
2023-04-15T02:19:28.868Z,11.65
2023-04-15T02:21:55.447Z,13.27
2023-04-15T02:24:22.074Z,12.20
2023-04-15T02:26:48.471Z,10.38
2023-04-15T02:29:15.049Z,12.25
2023-04-15T02:31:42.452Z,13.43
2023-04-15T02:34:09.215Z,11.85
2023-04-15T02:36:36.473Z,10.95
2023-04-15T02:39:04.250Z,11.25
2023-04-15T02:41:30.793Z,11.38
2023-04-15T02:43:57.473Z,11.43
2023-04-15T02:46:24.331Z,11.40
2023-04-15T02:48:51.001Z,13.13
2023-04-15T02:51:20.422Z,9.85
2023-04-15T02:53:50.032Z,11.73
2023-04-15T02:56:17.322Z,13.13
2023-04-15T02:58:45.562Z,11.73
2023-04-15T03:01:12.124Z,10.32
2023-04-15T03:03:38.584Z,10.73
2023-04-15T03:06:05.425Z,12.10
2023-04-15T03:08:31.925Z,12.77
2023-04-15T03:11:00.858Z,10.95
2023-04-15T03:13:27.347Z,10.90
2023-04-15T03:15:55.829Z,11.18
2023-04-15T03:20:48.478Z,11.63
2023-04-15T03:23:14.928Z,11.65
2023-04-15T03:25:42.204Z,14.60
2023-04-15T03:28:08.881Z,12.38
2023-04-15T03:30:35.422Z,13.85
2023-04-15T03:33:01.906Z,14.20
2023-04-15T03:35:28.351Z,16.17
2023-04-15T03:37:54.706Z,14.18
2023-04-15T03:40:21.686Z,16.15
2023-04-15T03:42:48.223Z,14.10
2023-04-15T03:45:14.673Z,12.88
2023-04-15T03:47:41.100Z,13.18
2023-04-15T03:50:08.653Z,16.80
2023-04-15T03:52:35.592Z,14.55
2023-04-15T03:55:02.253Z,15.68
2023-04-15T03:57:28.745Z,15.15
2023-04-15T03:59:55.289Z,19.15
2023-04-15T04:02:23.136Z,11.88
2023-04-15T04:04:49.905Z,13.07
2023-04-15T04:07:17.092Z,13.88
2023-04-15T04:09:44.165Z,15.80
2023-04-15T04:12:11.765Z,13.55
2023-04-15T04:14:38.110Z,12.77
2023-04-15T04:17:04.644Z,15.70
2023-04-15T04:19:31.255Z,13.80
2023-04-15T04:21:57.975Z,19.38
2023-04-15T04:24:24.420Z,14.93
2023-04-15T04:26:51.305Z,13.05
2023-04-15T04:29:17.744Z,13.52
2023-04-15T04:31:44.528Z,14.73
2023-04-15T04:34:11.057Z,13.23
2023-04-15T04:36:37.627Z,12.80
2023-04-15T04:39:04.075Z,13.48
2023-04-15T04:41:30.932Z,15.95
2023-04-15T04:43:57.527Z,14.00
2023-04-15T04:46:24.014Z,13.55
2023-04-15T04:48:50.959Z,16.38
2023-04-15T04:51:18.321Z,14.10
2023-04-15T04:53:44.991Z,14.77
2023-04-15T04:56:11.600Z,14.52
2023-04-15T04:58:38.236Z,13.70
2023-04-15T05:01:04.788Z,17.08
2023-04-15T05:03:31.329Z,17.45
2023-04-15T05:05:57.998Z,14.05
2023-04-15T05:08:24.333Z,14.48
2023-04-15T05:10:50.742Z,22.98
2023-04-15T05:13:17.253Z,16.27
2023-04-15T05:15:43.739Z,16.63
2023-04-15T05:18:10.504Z,22.13
2023-04-15T05:20:37.120Z,13.48
2023-04-15T05:23:03.802Z,15.50
2023-04-15T05:25:30.173Z,16.73
2023-04-15T05:27:56.610Z,16.58
2023-04-15T05:30:23.251Z,16.95
2023-04-15T05:32:50.230Z,16.23
2023-04-15T05:35:19.589Z,18.65
2023-04-15T05:37:46.849Z,19.17
2023-04-15T05:40:13.382Z,17.65
2023-04-15T05:42:39.803Z,19.85
2023-04-15T05:45:10.212Z,22.67
2023-04-15T05:47:37.545Z,17.90
2023-04-15T05:50:05.161Z,18.27
2023-04-15T05:52:32.006Z,18.97
2023-04-15T05:54:58.430Z,25.35
2023-04-15T05:57:25.002Z,19.05
2023-04-15T05:59:55.281Z,19.60
2023-04-15T06:02:22.132Z,18.73
2023-04-15T06:04:48.695Z,19.50
2023-04-15T06:07:15.725Z,23.10
2023-04-15T06:09:42.461Z,23.20
2023-04-15T06:12:12.137Z,27.83
2023-04-15T06:14:39.307Z,21.73
2023-04-15T06:17:06.012Z,24.10
2023-04-15T06:19:32.906Z,24.65
2023-04-15T06:24:26.159Z,19.85
2023-04-15T06:26:52.573Z,19.40
2023-04-15T06:29:19.227Z,21.25
2023-04-15T06:31:48.170Z,19.80
2023-04-15T06:34:14.606Z,20.92
2023-04-15T06:36:41.390Z,17.33
2023-04-15T06:39:07.760Z,24.58
2023-04-15T06:41:34.461Z,21.80
2023-04-15T06:44:01.187Z,20.17
2023-04-15T06:46:27.752Z,19.38
2023-04-15T06:48:54.182Z,20.20
2023-04-15T06:51:20.685Z,21.00
2023-04-15T06:53:47.154Z,19.75
2023-04-15T06:56:13.632Z,20.98
2023-04-15T06:58:40.013Z,21.73
2023-04-15T07:01:06.665Z,19.90
2023-04-15T07:03:33.374Z,19.50
2023-04-15T07:05:59.846Z,18.75
2023-04-15T07:08:26.556Z,20.25
2023-04-15T07:10:54.029Z,19.00
2023-04-15T07:13:21.080Z,18.65
2023-04-15T07:15:47.670Z,19.77
2023-04-15T07:18:14.117Z,20.33
2023-04-15T07:20:40.693Z,22.02
2023-04-15T07:23:07.294Z,21.05
2023-04-15T07:25:34.042Z,22.20
2023-04-15T07:28:00.614Z,23.55
2023-04-15T07:30:27.335Z,19.73
2023-04-15T07:32:54.187Z,21.67
2023-04-15T07:35:21.537Z,21.48
2023-04-15T07:37:48.436Z,21.55
2023-04-15T07:40:16.281Z,19.00
2023-04-15T07:42:43.647Z,22.60
2023-04-15T07:45:11.039Z,23.15
2023-04-15T07:47:37.503Z,23.33
2023-04-15T07:50:04.140Z,22.70
2023-04-15T07:52:30.953Z,24.77
2023-04-15T07:54:57.290Z,21.30
2023-04-15T07:57:23.674Z,23.75
2023-04-15T07:59:50.037Z,22.95
2023-04-15T08:02:16.628Z,16.92
2023-04-15T08:04:43.390Z,18.98
2023-04-15T08:07:10.336Z,15.48
2023-04-15T08:09:36.904Z,18.85
2023-04-15T08:12:03.704Z,20.33
2023-04-15T08:14:30.248Z,19.38
2023-04-15T08:16:57.100Z,17.02
2023-04-15T08:19:24.383Z,19.40
2023-04-15T08:21:51.941Z,18.00
2023-04-15T08:24:18.692Z,16.67
2023-04-15T08:26:47.030Z,15.43
2023-04-15T08:29:13.848Z,19.58
2023-04-15T08:31:40.339Z,17.17
2023-04-15T08:34:06.727Z,16.42
2023-04-15T08:36:33.603Z,16.50
2023-04-15T08:39:02.255Z,19.92
2023-04-15T08:41:35.739Z,16.35
2023-04-15T08:44:05.031Z,18.90
2023-04-15T08:46:34.742Z,19.58
2023-04-15T08:49:05.286Z,19.95
2023-04-15T08:51:32.245Z,19.02
2023-04-15T08:53:59.608Z,20.50
2023-04-15T08:56:28.276Z,17.70
2023-04-15T08:58:55.258Z,18.55
2023-04-15T09:01:22.750Z,17.55
2023-04-15T09:03:50.685Z,17.88
2023-04-15T09:06:18.118Z,20.95
2023-04-15T09:08:44.910Z,18.92
2023-04-15T09:11:11.396Z,17.50
2023-04-15T09:13:38.180Z,19.42
2023-04-15T09:16:06.374Z,19.67
2023-04-15T09:18:37.081Z,18.95
2023-04-15T09:21:08.903Z,18.27
2023-04-15T09:23:36.224Z,19.05
2023-04-15T09:26:03.650Z,15.85
2023-04-15T09:28:30.917Z,16.05
2023-04-15T09:30:58.284Z,15.10
2023-04-15T09:33:26.999Z,13.50
2023-04-15T09:35:58.975Z,15.95
2023-04-15T09:38:25.589Z,16.58
2023-04-15T09:40:52.263Z,10.85
2023-04-15T09:43:18.985Z,14.70
2023-04-15T09:45:53.298Z,14.85
2023-04-15T09:48:26.803Z,12.45
2023-04-15T09:50:57.706Z,12.60
2023-04-15T09:53:26.010Z,14.55
2023-04-15T09:55:56.692Z,14.55
2023-04-15T09:58:30.338Z,15.30
2023-04-15T10:00:58.994Z,18.92
2023-04-15T10:03:26.652Z,15.63
2023-04-15T10:05:54.690Z,16.50
2023-04-15T10:08:24.075Z,16.33
2023-04-15T10:10:54.627Z,14.20
2023-04-15T10:13:23.942Z,15.13
2023-04-15T10:16:02.887Z,15.32
2023-04-15T10:18:34.432Z,14.30
2023-04-15T10:21:01.870Z,13.73
2023-04-15T10:23:28.770Z,14.48
2023-04-15T10:25:55.510Z,13.25
2023-04-15T10:28:25.556Z,14.95
2023-04-15T10:30:53.875Z,14.55
2023-04-15T10:33:24.300Z,15.63
2023-04-15T10:35:52.854Z,12.85
2023-04-15T10:41:19.945Z,14.48
2023-04-15T10:43:54.979Z,13.45
2023-04-15T10:46:25.636Z,14.52
2023-04-15T10:48:54.060Z,15.73
2023-04-15T10:51:29.971Z,15.85
2023-04-15T10:53:58.973Z,13.40
2023-04-15T10:56:26.296Z,12.02
2023-04-15T10:58:52.698Z,12.02
2023-04-15T11:01:23.079Z,10.40
2023-04-15T11:03:57.203Z,11.13
2023-04-15T11:06:44.829Z,10.85
2023-04-15T11:09:32.088Z,10.80
2023-04-15T11:12:09.732Z,11.00
2023-04-15T11:14:40.644Z,13.43
2023-04-15T11:17:07.524Z,12.50
2023-04-15T11:19:38.864Z,9.00
2023-04-15T11:22:09.786Z,12.35
2023-04-15T11:24:37.536Z,10.27
2023-04-15T11:27:04.244Z,11.90
2023-04-15T11:29:33.283Z,9.60
2023-04-15T11:32:09.221Z,10.60
2023-04-15T11:34:36.347Z,13.43
2023-04-15T11:37:08.027Z,8.95
2023-04-15T11:39:34.415Z,12.90
2023-04-15T11:42:00.813Z,10.23
2023-04-15T11:44:27.103Z,12.88
2023-04-15T11:46:55.986Z,12.75
2023-04-15T11:49:33.837Z,10.00
2023-04-15T11:52:01.394Z,11.93
2023-04-15T11:54:28.041Z,11.18
2023-04-15T11:56:54.826Z,12.57
2023-04-15T11:59:21.274Z,11.38
2023-04-15T12:01:47.977Z,10.13
2023-04-15T12:04:25.217Z,11.98
2023-04-15T12:06:52.359Z,13.93
2023-04-15T12:09:20.330Z,10.50
2023-04-15T12:11:52.799Z,9.23
2023-04-15T12:14:25.955Z,15.00
2023-04-15T12:16:54.970Z,10.25
2023-04-15T12:19:25.883Z,10.68
2023-04-15T12:22:04.274Z,10.13
2023-04-15T12:24:35.800Z,8.50
2023-04-15T12:27:04.458Z,9.13
2023-04-15T12:29:31.874Z,11.55
2023-04-15T12:32:12.574Z,10.45
2023-04-15T12:34:45.065Z,9.25
2023-04-15T12:37:13.405Z,10.00
2023-04-15T12:39:42.469Z,12.52
2023-04-15T12:42:10.024Z,11.13
2023-04-15T12:44:37.949Z,7.65
2023-04-15T12:47:05.625Z,10.38
2023-04-15T12:49:32.734Z,10.93
2023-04-15T12:52:03.246Z,10.45
2023-04-15T12:54:33.309Z,9.52
2023-04-15T12:57:00.804Z,8.10
2023-04-15T12:59:28.892Z,11.07
2023-04-15T13:01:58.467Z,8.05
2023-04-15T13:04:30.565Z,8.60
2023-04-15T13:06:57.661Z,7.15
2023-04-15T13:09:24.024Z,8.50
2023-04-15T13:11:51.043Z,7.78
2023-04-15T13:14:17.656Z,6.68
2023-04-15T13:16:44.031Z,6.32
2023-04-15T13:19:10.588Z,5.57
2023-04-15T13:21:37.546Z,7.70
2023-04-15T13:24:04.870Z,7.00
2023-04-15T13:26:31.875Z,9.38
2023-04-15T13:28:58.667Z,12.75
2023-04-15T13:31:25.702Z,10.63
2023-04-15T13:33:52.132Z,8.00
2023-04-15T13:36:18.587Z,8.40
2023-04-15T13:38:44.912Z,7.07
2023-04-15T13:41:11.516Z,9.98
2023-04-15T13:43:37.863Z,21.48
2023-04-15T13:46:04.559Z,11.60
2023-04-15T13:48:31.188Z,14.63
2023-04-15T13:50:57.496Z,8.30
2023-04-15T13:53:33.874Z,6.28
2023-04-15T13:56:08.978Z,6.40
2023-04-15T13:58:37.344Z,7.00
2023-04-15T14:01:05.669Z,7.35
2023-04-15T14:03:34.324Z,6.95
2023-04-15T14:06:01.408Z,10.00
2023-04-15T14:08:27.854Z,10.88
2023-04-15T14:10:54.496Z,6.30
2023-04-15T14:13:20.954Z,6.85
2023-04-15T14:15:47.483Z,6.82
2023-04-15T14:18:13.960Z,6.35
2023-04-15T14:20:40.537Z,44.20
2023-04-15T14:23:07.349Z,13.52
2023-04-15T14:25:34.318Z,8.85
2023-04-15T14:28:01.813Z,6.32
2023-04-15T14:30:28.460Z,7.18
2023-04-15T14:32:55.369Z,6.45
2023-04-15T14:35:21.805Z,7.35
2023-04-15T14:37:48.125Z,6.22
2023-04-15T14:40:14.620Z,8.52
2023-04-15T14:42:40.968Z,6.82
2023-04-15T14:45:07.894Z,6.30
2023-04-15T14:47:34.337Z,13.07
2023-04-15T14:50:00.940Z,12.77
2023-04-15T14:52:27.244Z,11.00
2023-04-15T14:54:53.590Z,9.75
2023-04-15T14:57:19.958Z,9.20
2023-04-15T14:59:46.604Z,12.05
2023-04-15T15:02:17.346Z,10.00
2023-04-15T15:04:52.954Z,19.92
2023-04-15T15:07:19.431Z,36.47
2023-04-15T15:09:46.034Z,38.58
2023-04-15T15:12:12.411Z,36.95
2023-04-15T15:14:38.779Z,27.85
2023-04-15T15:17:05.451Z,17.55
2023-04-15T15:19:32.073Z,15.55
2023-04-15T15:21:59.257Z,13.65
2023-04-15T15:24:25.564Z,13.82
2023-04-15T15:26:51.950Z,15.93
2023-04-15T15:29:18.275Z,10.70
2023-04-15T15:31:44.664Z,8.05
2023-04-15T15:34:11.308Z,8.32
2023-04-15T15:36:37.691Z,13.00
2023-04-15T15:39:05.059Z,12.80
2023-04-15T15:41:33.325Z,10.97
2023-04-15T15:43:59.894Z,10.82
2023-04-15T15:46:29.134Z,9.35
2023-04-15T15:48:58.315Z,6.95
2023-04-15T15:51:25.037Z,11.75
2023-04-15T15:53:51.433Z,11.32
2023-04-15T15:56:17.861Z,6.35
2023-04-15T15:58:44.997Z,9.40
2023-04-15T16:01:11.970Z,7.13
2023-04-15T16:03:38.521Z,23.70
2023-04-15T16:06:05.577Z,10.57
2023-04-15T16:08:32.130Z,6.00
2023-04-15T16:10:58.688Z,8.90
2023-04-15T16:13:25.109Z,7.10
2023-04-15T16:15:51.491Z,7.10
2023-04-15T16:18:18.590Z,11.20
2023-04-15T16:20:45.211Z,7.80
2023-04-15T16:23:16.888Z,3.95
2023-04-15T16:25:44.550Z,6.95
2023-04-15T16:28:25.225Z,6.83
2023-04-15T16:30:53.291Z,5.25
2023-04-15T16:33:19.650Z,9.88
2023-04-15T16:35:46.252Z,4.93
2023-04-15T16:38:12.899Z,5.95
2023-04-15T16:40:39.557Z,5.60
2023-04-15T16:43:11.349Z,4.03
2023-04-15T16:45:38.338Z,8.20
2023-04-15T16:48:05.002Z,7.20
2023-04-15T16:50:31.757Z,7.70
2023-04-15T16:52:58.121Z,4.65
2023-04-15T16:55:24.831Z,5.05
2023-04-15T16:58:00.709Z,7.32
2023-04-15T17:00:29.278Z,4.72
2023-04-15T17:02:55.851Z,3.65
2023-04-15T17:05:22.549Z,6.57
2023-04-15T17:07:49.017Z,6.05
2023-04-15T17:10:15.749Z,6.57
2023-04-15T17:12:42.079Z,13.23
2023-04-15T17:15:09.243Z,7.03
2023-04-15T17:17:35.804Z,7.82
2023-04-15T17:20:02.217Z,6.20
2023-04-15T17:22:28.640Z,5.75
2023-04-15T17:24:55.166Z,6.68
2023-04-15T17:27:24.682Z,7.00
2023-04-15T17:29:51.053Z,5.93
2023-04-15T17:32:17.644Z,4.13
2023-04-15T17:34:50.696Z,6.88
2023-04-15T17:37:18.048Z,6.43
2023-04-15T17:39:44.447Z,11.25
2023-04-15T17:42:11.552Z,12.10
2023-04-15T17:44:37.909Z,8.90
2023-04-15T17:47:04.524Z,5.05
2023-04-15T17:49:31.220Z,9.65
2023-04-15T17:51:59.504Z,10.93
2023-04-15T17:54:25.823Z,9.55
2023-04-15T17:56:52.213Z,7.72
2023-04-15T17:59:18.586Z,9.00
2023-04-15T18:01:48.252Z,8.18
2023-04-15T18:04:15.041Z,7.35
2023-04-15T18:06:41.704Z,10.70
2023-04-15T18:09:11.262Z,8.80
2023-04-15T18:11:39.864Z,18.80
2023-04-15T18:16:33.354Z,13.02
2023-04-15T18:18:59.939Z,13.95
2023-04-15T18:21:27.250Z,10.10
2023-04-15T18:23:53.652Z,13.68
2023-04-15T18:26:19.989Z,13.57
2023-04-15T18:28:46.412Z,10.57
2023-04-15T18:31:12.824Z,10.50
2023-04-15T18:33:39.229Z,8.75
2023-04-15T18:36:05.785Z,11.68
2023-04-15T18:38:32.581Z,8.25
2023-04-15T18:40:58.974Z,12.57
2023-04-15T18:43:25.385Z,9.25
2023-04-15T18:45:52.956Z,10.48
2023-04-15T18:48:19.366Z,9.07
2023-04-15T18:50:46.035Z,11.43
2023-04-15T18:53:13.650Z,9.75
2023-04-15T18:55:43.097Z,8.63
2023-04-15T18:58:09.522Z,9.05
2023-04-15T19:00:40.575Z,9.57
2023-04-15T19:03:07.795Z,13.05
2023-04-15T19:05:34.148Z,12.77
2023-04-15T19:08:00.498Z,10.88
2023-04-15T19:10:27.996Z,10.02
2023-04-15T19:12:55.358Z,12.98
2023-04-15T19:15:21.863Z,12.77
2023-04-15T19:17:49.119Z,11.75
2023-04-15T19:20:15.793Z,10.57
2023-04-15T19:22:43.180Z,10.98
2023-04-15T19:25:10.193Z,12.70
2023-04-15T19:27:38.184Z,11.98
2023-04-15T19:30:06.530Z,10.00
2023-04-15T19:32:33.983Z,11.70
2023-04-15T19:35:00.395Z,17.38
2023-04-15T19:37:27.425Z,18.98
2023-04-15T19:39:54.573Z,17.00
2023-04-15T19:42:20.923Z,14.90
2023-04-15T19:44:47.422Z,13.13
2023-04-15T19:47:13.839Z,12.10
2023-04-15T19:49:40.573Z,17.20
2023-04-15T19:52:07.052Z,16.85
2023-04-15T19:54:33.645Z,19.33
2023-04-15T19:57:01.671Z,14.07
2023-04-15T19:59:28.266Z,18.17
2023-04-15T20:01:55.221Z,14.95
2023-04-15T20:04:22.558Z,16.63
2023-04-15T20:06:49.911Z,16.33
2023-04-15T20:09:16.543Z,15.02
2023-04-15T20:12:47.895Z,17.63
2023-04-15T20:14:29.885Z,16.13
2023-04-15T20:16:56.350Z,13.48
2023-04-15T20:19:22.941Z,15.18
2023-04-15T20:21:50.853Z,14.30
2023-04-15T20:24:20.073Z,14.57
2023-04-15T20:26:46.662Z,16.83
2023-04-15T20:29:13.836Z,16.45
2023-04-15T20:31:40.432Z,16.02
2023-04-15T20:34:07.176Z,16.02
2023-04-15T20:36:34.258Z,17.83
2023-04-15T20:39:00.635Z,15.15
2023-04-15T20:41:27.061Z,15.93
2023-04-15T20:43:53.616Z,18.08
2023-04-15T20:46:21.652Z,17.63
2023-04-15T20:48:48.717Z,17.52
2023-04-15T20:51:15.301Z,16.60
2023-04-15T20:53:42.341Z,16.83
2023-04-15T20:56:09.048Z,18.17
2023-04-15T20:58:35.426Z,18.88
2023-04-15T21:01:02.321Z,16.52
2023-04-15T21:03:29.281Z,15.48
2023-04-15T21:05:55.815Z,19.05
2023-04-15T21:08:29.318Z,16.52
2023-04-15T21:10:57.289Z,16.02
2023-04-15T21:13:23.865Z,22.00
2023-04-15T21:15:53.899Z,18.17
2023-04-15T21:18:21.661Z,15.13
2023-04-15T21:20:57.176Z,23.13
2023-04-15T21:23:23.785Z,18.88
2023-04-15T21:25:50.230Z,17.05
2023-04-15T21:28:16.966Z,18.88
2023-04-15T21:30:43.386Z,17.65
2023-04-15T21:33:09.968Z,18.33
2023-04-15T21:35:36.263Z,21.60
2023-04-15T21:38:02.670Z,19.20
2023-04-15T21:40:29.874Z,19.73
2023-04-15T21:42:56.313Z,17.90
2023-04-15T21:45:22.696Z,22.45
2023-04-15T21:47:57.134Z,20.17
2023-04-15T21:50:33.622Z,18.67
2023-04-15T21:53:01.167Z,25.17
2023-04-15T21:55:27.535Z,20.95
2023-04-15T21:57:53.933Z,20.15
2023-04-15T22:00:21.273Z,24.30
2023-04-15T22:02:47.719Z,21.98
2023-04-15T22:05:15.381Z,21.08
2023-04-15T22:07:41.770Z,19.30
2023-04-15T22:10:09.788Z,19.15
2023-04-15T22:12:36.345Z,23.52
2023-04-15T22:15:03.203Z,20.50
2023-04-15T22:17:29.636Z,22.42
2023-04-15T22:19:56.027Z,24.05
2023-04-15T22:22:22.400Z,24.17
2023-04-15T22:24:54.129Z,20.65
2023-04-15T22:27:20.568Z,24.13
2023-04-15T22:29:46.871Z,23.50
2023-04-15T22:32:13.552Z,25.73
2023-04-15T22:34:39.964Z,24.80
2023-04-15T22:37:06.437Z,27.92
2023-04-15T22:39:32.800Z,23.40
2023-04-15T22:41:59.221Z,27.23
2023-04-15T22:44:25.822Z,27.80
2023-04-15T22:46:52.118Z,27.33
2023-04-15T22:49:18.488Z,26.83
2023-04-15T22:51:44.797Z,25.13
2023-04-15T22:54:11.107Z,26.92
2023-04-15T22:56:37.672Z,27.55
2023-04-15T22:59:04.275Z,25.08
2023-04-15T23:01:31.887Z,26.25
2023-04-15T23:04:03.734Z,33.57
2023-04-15T23:06:35.877Z,28.87
2023-04-15T23:09:02.263Z,35.75
2023-04-15T23:11:28.671Z,27.25
2023-04-15T23:13:55.347Z,28.55
2023-04-15T23:16:22.034Z,29.98
2023-04-15T23:18:48.780Z,28.30
2023-04-15T23:21:15.175Z,28.27
2023-04-15T23:23:41.568Z,31.35
2023-04-15T23:26:08.153Z,29.17
2023-04-15T23:28:34.704Z,31.30
2023-04-15T23:31:01.130Z,31.65
2023-04-15T23:33:27.507Z,32.20
2023-04-15T23:35:53.832Z,27.77
2023-04-15T23:38:20.274Z,32.38
2023-04-15T23:40:46.723Z,29.80
2023-04-15T23:43:13.167Z,30.05
2023-04-15T23:45:40.193Z,29.65
2023-04-15T23:48:06.882Z,30.77
2023-04-15T23:50:33.451Z,30.92
2023-04-15T23:52:59.969Z,29.27
2023-04-15T23:55:26.344Z,34.28
2023-04-15T23:57:52.690Z,31.95
